< < Back
Terminal Aerodrome Forecast


Current Version              Previous Versions:   1  2  3  4  5  6  7  8  9  

Terminal Aerodrome Forecast

925
FTUS42 KTAE 200900 AAA
TAFTLH
TAF AMD
KTLH 200928Z 2009/2106 00000KT P6SM SCT002
      TEMPO 2009/2012 3SM BR BKN003
     FM201300 28007KT P6SM FEW030
     FM201900 27009KT P6SM VCTS SCT040CB
     FM210000 30003KT P6SM SCT040=



Latest METAR

691
SAUS80 KWBC 202000 RRA
MTRTLH
METAR KTLH 201953Z 27009G14KT 10SM BKN049 36/22 A3004 RMK AO2 SLP170
T03560217


USA.gov is the U.S. government's official web portal to all federal, state and local government web resources and services.